Tiempo atmosférico en la estación meteorológica de Arevalo, Ávila (820 m.)



Fecha
DESCASC
Temp. máxima en grados centígrados (hora)
DESCASC
Temp. mínima en grados centígrados (hora)
DESCASC
Temp. media en grados centígrados
DESCASC
Racha de viento máxima en m/sg (hora)
DESCASC
Velocidad máxima media en intervalos de 10 minutos(hora)
DESCASC
Precipitaciones diarias en mm
DESCASC
Precipitaciones de 00:00 a 06:00 en mm
DESCASC
Precipitaciones de 06:00 a 12:00 en mm
DESCASC
Precipitaciones de 12:00 a 18:00 en mm
DESCASC
Precipitaciones de 18:00 a 24:00 en mm
DESCASC
18-01-2018 13.6 (14:20) -1.5 (08:10) 6.1 4.17 (15:10) 3.06 (15:10) 0 0 0 0 0
17-01-2018 11.1 (16:10) 0.8 (23:59) 6 7.5 (01:10) 4.72 (00:10) 0 0 0 0 0
16-01-2018 11.1 (13:50) 4.8 (02:30) 8 10.56 (14:30) 6.39 (08:50) 0 0 0 0 0
15-01-2018 8.2 (16:50) -3.9 (08:10) 2.1 6.39 (17:00) 3.89 (17:10) 0 0 0 0 0
14-01-2018 3.8 (13:50) -1.3 (-00:0) 1.3 8.61 (01:50) 6.11 (01:30) 0.4 0 0.4 0 0
13-01-2018 4 (17:20) -0.5 (-00:0) 1.8 10.83 (17:40) 6.94 (17:40) 4.2 0 1 3.2 0
12-01-2018 7.7 (16:10) -2.7 (-00:0) 2.5 6.67 (00:40) 3.61 (00:40) 0 0 0 0 0
11-01-2018 6.6 (15:30) 1.5 (00:00) 4 13.61 (01:50) 8.89 (02:10) 0 0 0 0 0
10-01-2018 5.6 (15:30) 1.6 (00:00) 3.6 13.06 (15:30) 9.72 (16:30) 0.6 0.2 0 0.4 0
09-01-2018 3.2 (15:00) -12.5 (-00:0) -4.6 6.67 (13:50) 3.89 (13:40) 1 0 0 0.6 0.4
08-01-2018 0.8 (15:50) -12.3 (-00:0) -5.8 4.72 (23:50) 2.78 (14:10) 0 0 0 0 0
07-01-2018 0.4 (13:30) -3.9 (-00:0) -1.8 9.17 (02:30) 5.83 (01:30) 15.6 2.8 8 4.6 0.2
06-01-2018 3.7 (00:00) 0 (00:00) 1.9 9.72 (23:40) 6.39 (23:40) 10 3.4 1 4.2 1.4
05-01-2018 10.5 (11:20) 3.7 (00:00) 7.1 13.61 (11:30) 8.89 (10:20) 11.6 0 0 2.6 9
04-01-2018 11.6 (16:10) 9.5 (23:59) 10.6 12.22 (15:10) 6.67 (14:30) 0 0 0 0 0
03-01-2018 13.7 (14:30) 10.2 (00:00) 11.9 12.78 (12:50) 8.61 (12:50) 0.2 0 0.2 0 0
02-01-2018 10.6 (22:50) 6.1 (00:00) 8.4 11.11 (01:20) 7.22 (01:20) 0 0 0 0 0
01-01-2018 8.3 (14:10) 0.7 (00:00) 4.5 14.72 (15:40) 9.72 (22:00) 0 0 0 0 0
31-12-2017 11.1 (14:20) 3.1 (00:00) 7.1 22.78 (16:10) 11.94 (16:10) 1.2 0 0 1 0.2
30-12-2017 12.8 (15:10) 4.1 (00:00) 8.5 9.44 (13:20) 5.28 (13:20) 0 0 0 0 0
29-12-2017 12.7 (16:00) 7 (00:00) 9.8 13.61 (12:50) 8.06 (10:50) 0.2 0 0.2 0 0
28-12-2017 11.9 (16:50) 4.6 (00:00) 8.2 13.33 (14:50) 8.33 (14:50) 2.6 2.4 0 0.2 0
27-12-2017 7.3 (01:10) 2.8 (00:00) 5.1 19.17 (02:50) 12.78 (01:40) 2.2 1 0 0 1.2
26-12-2017 7.5 (22:50) 1.9 (00:00) 4.7 16.67 (23:30) 11.39 (23:30) 2 0 0 0.8 1.2
25-12-2017 10.8 (13:10) -3.2 (-00:0) 3.8 12.78 (17:30) 8.33 (17:40) 1 0 0 0 1
24-12-2017 9.5 (13:40) -3.8 (-00:0) 2.9 4.44 (15:50) 2.78 (00:50) 0 0 0 0 0

Gráficas

Temp. máximas Temp. mínimas Temp. medias Precipitaciones Rachas de viento máximas Velocidades máximas media en intervalos de 10 minutos

Datos horarios

Fecha y hora oficial Temperatura (ºC) Velocidad del viento (km/h) Dirección del viento Racha (km/h) Dirección de racha Precipitación (mm) Presión (hPa) Tendencia (hPa) Humedad (%)
2018-01-22 23:00:00 1.3 2 Sur 6 Sudoeste 0 -- -- 97
2018-01-22 22:00:00 2.1 3 Sudoeste 6 Sudoeste 0 -- -- 96
2018-01-22 21:00:00 3.3 3 Sur 5 Sur 0 -- -- 95
2018-01-22 20:00:00 4.5 0 Calma 3 Norte 0 -- -- 91
2018-01-22 19:00:00 7 0 Calma 4 Nordeste 0 -- -- 83
2018-01-22 18:00:00 9.1 0 Calma 6 Noroeste 0 -- -- 75
2018-01-22 17:00:00 10.1 2 Sudoeste 9 Sur 0 -- -- 72
2018-01-22 16:00:00 8.9 0 Calma 13 Sur 0 -- -- 79
2018-01-22 15:00:00 8.3 4 Sudoeste 16 Oeste 0 -- -- 81
2018-01-22 14:00:00 7.8 10 Noroeste 17 Noroeste 0 -- -- 83
2018-01-22 13:00:00 7.7 7 Noroeste 15 Oeste 0 -- -- 83
2018-01-22 12:00:00 7.2 9 Oeste 19 Sudoeste 0 -- -- 85
2018-01-22 11:00:00 6.9 11 Oeste 17 Sudoeste 0 -- -- 88
2018-01-22 10:00:00 6.7 9 Oeste 15 Oeste 0 -- -- 90
2018-01-22 09:00:00 6.4 6 Sudoeste 13 Oeste 0 -- -- 93
2018-01-22 08:00:00 6.5 7 Oeste 16 Oeste 0 -- -- 94
2018-01-22 07:00:00 6.3 6 Oeste 18 Sudoeste 0 -- -- 95
2018-01-22 06:00:00 6.6 10 Oeste 17 Sudoeste 0 -- -- 93
2018-01-22 05:00:00 6.2 7 Sudoeste 12 Sudoeste 0 -- -- 96
2018-01-22 04:00:00 6.2 6 Sudoeste 15 Sudoeste 0 -- -- 96
2018-01-22 03:00:00 6.2 8 Sudoeste 16 Sudoeste 0 -- -- 94
2018-01-22 02:00:00 6.5 8 Sudoeste 15 Sudoeste 0 -- -- 93
2018-01-22 01:00:00 6.7 9 Sur 14 Sur 0 -- -- 92
2018-01-22 00:00:00 7.1 6 Sudoeste 16 Oeste 0 -- -- 91
2018-01-21 23:00:00 7.4 9 Oeste 19 Oeste 0 -- -- 90
2018-01-21 22:00:00 7.3 6 Sudoeste 14 Oeste 0 -- -- 91
2018-01-21 21:00:00 7.3 8 Sudoeste 14 Oeste 0 -- -- 91
2018-01-21 20:00:00 7.4 5 Oeste 15 Sudoeste 0 -- -- 90
2018-01-21 19:00:00 7.7 6 Sudoeste 15 Sudoeste 0 -- -- 89
2018-01-21 18:00:00 7.8 6 Oeste 15 Oeste 0 -- -- 88
2018-01-21 17:00:00 7.9 8 Oeste 15 Oeste 0 -- -- 88
2018-01-21 16:00:00 8.1 7 Oeste 20 Oeste 0 -- -- 89
2018-01-21 15:00:00 7.9 10 Oeste 21 Noroeste 0 -- -- 88
2018-01-21 14:00:00 8 10 Oeste 18 Oeste 0 -- -- 89
2018-01-21 13:00:00 7.6 12 Oeste 22 Oeste 0 -- -- 91
2018-01-21 12:00:00 7.1 12 Oeste 20 Oeste 0 -- -- 94
2018-01-21 11:00:00 6.4 10 Oeste 20 Oeste 0 -- -- 97
2018-01-21 10:00:00 5.9 11 Oeste 24 Oeste 0 -- -- 99
2018-01-21 09:00:00 5.6 19 Oeste 27 Oeste 0 -- -- 98
2018-01-21 08:00:00 5.8 10 Oeste 21 Noroeste 0 -- -- 97
2018-01-21 07:00:00 5.9 12 Oeste 28 Oeste 0 -- -- 95
2018-01-21 06:00:00 5.8 9 Noroeste 24 Noroeste 0 -- -- 94
2018-01-21 05:00:00 5.6 11 Oeste 19 Oeste 0 -- -- 94
2018-01-21 04:00:00 5.9 7 Sudoeste 16 Oeste 0 -- -- 93
2018-01-21 03:00:00 6.4 9 Oeste 25 Oeste 0 -- -- 91
2018-01-21 02:00:00 6.8 11 Oeste 27 Oeste 0 -- -- 90
2018-01-21 01:00:00 7.5 14 Oeste 28 Oeste 0 -- -- 88
2018-01-21 00:00:00 7.4 14 Oeste 32 Oeste 0 -- -- 88
2018-01-20 23:00:00 6.9 16 Oeste 27 Oeste 0 -- -- 86
2018-01-20 22:00:00 6.8 10 Oeste 25 Oeste 0 -- -- 84
2018-01-20 21:00:00 7.2 11 Oeste 29 Noroeste 0 -- -- 83
2018-01-20 20:00:00 7.9 15 Oeste 30 Noroeste 0 -- -- 79
2018-01-20 19:00:00 8.7 14 Oeste 27 Oeste 0 -- -- 73
2018-01-20 18:00:00 10 18 Noroeste 32 Oeste 0 -- -- 66
2018-01-20 17:00:00 11.4 16 Noroeste 35 Oeste 0 -- -- 58
2018-01-20 16:00:00 12.5 17 Noroeste 32 Noroeste 0 -- -- 52
2018-01-20 15:00:00 12.5 16 Noroeste 35 Noroeste 0 -- -- 49
2018-01-20 14:00:00 11.9 20 Noroeste 37 Noroeste 0 -- -- 49
2018-01-20 13:00:00 11.1 23 Noroeste 36 Noroeste 0 -- -- 48
2018-01-20 12:00:00 9.5 17 Oeste 40 Noroeste 0 -- -- 55
2018-01-20 11:00:00 7.7 12 Oeste 30 Oeste 0 -- -- 61
2018-01-20 10:00:00 4.8 7 Sur 14 Sudoeste 0 -- -- 73
2018-01-20 09:00:00 0.8 7 Sur 12 Sur 0 -- -- 90
2018-01-20 08:00:00 3.3 7 Sudoeste 17 Sudoeste 0 -- -- 82
2018-01-20 07:00:00 2.7 7 Sudoeste 19 Oeste 0 -- -- 90
2018-01-20 06:00:00 3 10 Oeste 18 Oeste 0 -- -- 92
2018-01-20 05:00:00 2.3 10 Oeste 16 Oeste 0 -- -- 93
2018-01-20 04:00:00 3.2 8 Oeste 18 Oeste 0 -- -- 94
2018-01-20 03:00:00 3.9 14 Noroeste 24 Noroeste 0 -- -- 93
2018-01-20 02:00:00 4.3 12 Oeste 25 Oeste 0 -- -- 93
2018-01-20 01:00:00 2.3 8 Oeste 12 Sudoeste 0 -- -- 98
2018-01-20 00:00:00 1 8 Sur 14 Sur 0 -- -- 96
2018-01-19 23:00:00 1.9 6 Sur 12 Sur 0 -- -- 94
2018-01-19 22:00:00 2.4 8 Sur 12 Sur 0 -- -- 94
2018-01-19 21:00:00 3.8 6 Sudoeste 7 Sur 0 -- -- 90
2018-01-19 20:00:00 4.9 2 Oeste 5 Oeste 0 -- -- 87
2018-01-19 19:00:00 7.3 3 Oeste 10 Norte 0 -- -- 79
2018-01-19 18:00:00 9.2 6 Norte 17 Norte 0 -- -- 72
2018-01-19 17:00:00 10.8 6 Noroeste 17 Noroeste 0 -- -- 69
2018-01-19 16:00:00 10.6 9 Noroeste 18 Norte 0 -- -- 66
2018-01-19 15:00:00 10.9 6 Noroeste 13 Norte 0 -- -- 65
2018-01-19 14:00:00 10.5 4 Sudoeste 11 Oeste 0 -- -- 69
2018-01-19 13:00:00 8 5 Noroeste 15 Noroeste 0 -- -- 79
2018-01-19 12:00:00 6.1 11 Norte 15 Noroeste 0 -- -- 86
2018-01-19 11:00:00 3.2 4 Sudoeste 12 Sur 0 -- -- 91
2018-01-19 10:00:00 0.1 5 Sur 9 Sur 0 -- -- 94
2018-01-19 09:00:00 -1.7 6 Sur 10 Sur 0 -- -- 96
2018-01-19 08:00:00 -1.6 2 Sudeste 4 Norte 0 -- -- 95
2018-01-19 07:00:00 -1.3 4 Sudoeste 13 Sur 0 -- -- 95
2018-01-19 06:00:00 -0.9 9 Sur 12 Sur 0 -- -- 95
2018-01-19 05:00:00 -0.8 6 Sur 9 Sur 0 -- -- 95
2018-01-19 04:00:00 -0.6 6 Sur 12 Sur 0 -- -- 95
2018-01-19 03:00:00 0.1 5 Sur 12 Sur 0 -- -- 94
2018-01-19 02:00:00 0.4 0 Calma 9 Sur 0 -- -- 94
2018-01-19 01:00:00 1.1 6 Sudoeste 9 Sudoeste 0 -- -- 94
2018-01-19 00:00:00 1.5 3 Sur 9 Sur 0 -- -- 93
2018-01-18 23:00:00 2.2 5 Sur 12 Sur 0 -- -- 91
2018-01-18 22:00:00 3 9 Sur 12 Sur 0 -- -- 89
2018-01-18 21:00:00 4.2 6 Sur 8 Sur 0 -- -- 86
2018-01-18 20:00:00 6.2 3 Sur 7 Norte 0 -- -- 79
2018-01-18 19:00:00 7.9 6 Norte 12 Norte 0 -- -- 73
2018-01-18 18:00:00 11.7 3 Norte 6 Sudoeste 0 -- -- 46
2018-01-18 17:00:00 13.4 4 Norte 12 Norte 0 -- -- 35
2018-01-18 16:00:00 13.1 7 Norte 15 Norte 0 -- -- 55
2018-01-18 15:00:00 13.1 8 Norte 15 Norte 0 -- -- 57
2018-01-18 14:00:00 13.2 5 Norte 9 Norte 0 -- -- 45
2018-01-18 13:00:00 11.6 3 Sudoeste 8 Sudoeste 0 -- -- 57
2018-01-18 12:00:00 8 2 Sudoeste 6 Sur 0 -- -- 73
2018-01-18 11:00:00 4.2 5 Sur 8 Sur 0 -- -- 80
2018-01-18 10:00:00 1.1 4 Sur 9 Sudoeste 0 -- -- 89
2018-01-18 09:00:00 -1.3 5 Sudoeste 10 Sudoeste 0 -- -- 96
2018-01-18 08:00:00 -1.4 6 Sudoeste 10 Sur 0 -- -- 97
2018-01-18 07:00:00 -1.3 4 Sudoeste 8 Sudoeste 0 -- -- 97
2018-01-18 06:00:00 -1 3 Sudoeste 8 Sur 0 -- -- 97
2018-01-18 05:00:00 -0.8 5 Sur 10 Sudoeste 0 -- -- 97
2018-01-18 04:00:00 -0.9 6 Sudoeste 12 Sur 0 -- -- 97
2018-01-18 03:00:00 -0.6 6 Sur 9 Sudoeste 0 -- -- 97
2018-01-18 02:00:00 -0.4 5 Sur 12 Sur 0 -- -- 97
2018-01-18 01:00:00 0 6 Sur 10 Sur 0 -- -- 97
2018-01-18 00:00:00 0.8 5 Sudoeste 11 Sur 0 -- -- 95
2018-01-17 23:00:00 1.1 5 Sur 7 Sur 0 -- -- 95
2018-01-17 22:00:00 2.2 4 Sur 6 Sudoeste 0 -- -- 93
2018-01-17 21:00:00 3.6 3 Sudeste 8 Sur 0 -- -- 92
2018-01-17 20:00:00 4.7 2 Noroeste 6 Noroeste 0 -- -- 88
2018-01-17 19:00:00 6.9 4 Noroeste 6 Noroeste 0 -- -- 80
2018-01-17 18:00:00 9.5 3 Oeste 10 Noroeste 0 -- -- 69
2018-01-17 17:00:00 11 5 Oeste 11 Oeste 0 -- -- 61
2018-01-17 16:00:00 11 4 Oeste 13 Oeste 0 -- -- 61
2018-01-17 15:00:00 10.3 7 Noroeste 19 Norte 0 -- -- 66
2018-01-17 14:00:00 9.3 9 Norte 22 Norte 0 -- -- 70
2018-01-17 13:00:00 9 13 Norte 24 Norte 0 -- -- 70
2018-01-17 12:00:00 8.2 12 Norte 19 Norte 0 -- -- 75
2018-01-17 11:00:00 7.7 8 Noroeste 16 Noroeste 0 -- -- 91
2018-01-17 10:00:00 6.5 7 Noroeste 21 Noroeste 0 -- -- 95
2018-01-17 09:00:00 4.9 10 Noroeste 20 Oeste 0 -- -- 97
2018-01-17 08:00:00 5.2 11 Noroeste 20 Noroeste 0 -- -- 97
2018-01-17 07:00:00 5.7 10 Noroeste 20 Oeste 0 -- -- 96
2018-01-17 06:00:00 5.8 12 Oeste 22 Oeste 0 -- -- 96
2018-01-17 05:00:00 5.4 11 Oeste 23 Oeste 0 -- -- 96
2018-01-17 04:00:00 6 13 Oeste 22 Oeste 0 -- -- 94
2018-01-17 03:00:00 6.5 13 Oeste 27 Oeste 0 -- -- 93
2018-01-17 02:00:00 7.2 14 Oeste 27 Oeste 0 -- -- 93
2018-01-17 01:00:00 7.6 15 Oeste 27 Noroeste 0 -- -- 91
2018-01-17 00:00:00 7.8 14 Oeste 28 Oeste 0 -- -- 91
2018-01-16 23:00:00 8.5 13 Oeste 26 Oeste 0 -- -- 90
2018-01-16 22:00:00 8.2 13 Oeste 23 Oeste 0 -- -- 92
2018-01-16 21:00:00 8.6 17 Oeste 25 Oeste 0 -- -- 89
2018-01-16 20:00:00 9.5 10 Oeste 30 Sudoeste 0 -- -- 89
2018-01-16 19:00:00 10 15 Oeste 31 Noroeste 0 -- -- 89
2018-01-16 18:00:00 10.4 15 Noroeste 26 Noroeste 0 -- -- 88
2018-01-16 17:00:00 10.5 13 Noroeste 31 Oeste 0 -- -- 88
2018-01-16 16:00:00 10.7 18 Noroeste 37 Oeste 0 -- -- 87
2018-01-16 15:00:00 11 15 Noroeste 38 Noroeste 0 -- -- 86
2018-01-16 14:00:00 11 21 Noroeste 36 Oeste 0 -- -- 85
2018-01-16 13:00:00 10.7 20 Noroeste 36 Oeste 0 -- -- 84
2018-01-16 12:00:00 10 19 Oeste 37 Oeste 0 -- -- 85
2018-01-16 11:00:00 9 14 Oeste 27 Oeste 0 -- -- 90
2018-01-16 10:00:00 8.4 18 Oeste 35 Oeste 0 -- -- 92
2018-01-16 09:00:00 7.9 19 Oeste 34 Oeste 0 -- -- 93
2018-01-16 08:00:00 7.4 14 Oeste 27 Oeste 0 -- -- 94
2018-01-16 07:00:00 7.1 16 Oeste 35 Oeste 0 -- -- 93
2018-01-16 06:00:00 6.7 19 Oeste 35 Oeste 0 -- -- 92
2018-01-16 05:00:00 6.5 13 Oeste 33 Oeste 0 -- -- 86
2018-01-16 04:00:00 6.4 19 Oeste 33 Oeste 0 -- -- 81
2018-01-16 03:00:00 5.1 14 Oeste 25 Oeste 0 -- -- 81
2018-01-16 02:00:00 5.1 10 Oeste 26 Oeste 0 -- -- 82
2018-01-16 01:00:00 5.6 12 Oeste 25 Oeste 0 -- -- 77
2018-01-16 00:00:00 5.9 10 Oeste 22 Oeste 0 -- -- 69
2018-01-15 23:00:00 5.2 8 Sudoeste 17 Sudoeste 0 -- -- 73
2018-01-15 22:00:00 5.1 11 Sudoeste 20 Oeste 0 -- -- 74
2018-01-15 21:00:00 4.9 9 Oeste 18 Oeste 0 -- -- 78
2018-01-15 20:00:00 5.6 9 Oeste 15 Oeste 0 -- -- 76
2018-01-15 19:00:00 6 10 Oeste 16 Oeste 0 -- -- 76
2018-01-15 18:00:00 6.7 8 Oeste 21 Oeste 0 -- -- 72
2018-01-15 17:00:00 7.7 13 Oeste 23 Oeste 0 -- -- 60
2018-01-15 16:00:00 7.6 13 Oeste 21 Oeste 0 -- -- 60
2018-01-15 15:00:00 6.7 8 Sudoeste 15 Oeste 0 -- -- 67
2018-01-15 14:00:00 6.1 5 Sudoeste 10 Sudoeste 0 -- -- 71
2018-01-15 13:00:00 4.5 5 Sudoeste 10 Sudoeste 0 -- -- 76
2018-01-15 12:00:00 2.2 6 Sudoeste 10 Sudoeste 0 -- -- 82
2018-01-15 11:00:00 -0.4 7 Sur 11 Sur 0 -- -- 90
2018-01-15 10:00:00 -2.6 3 Sudoeste 9 Sur 0 -- -- 94
2018-01-15 09:00:00 -3.5 6 Sur 9 Sur 0 -- -- 95
2018-01-15 08:00:00 -3.8 5 Sur 13 Sur 0 -- -- 95
2018-01-15 07:00:00 -3.3 8 Sur 11 Sur 0 -- -- 96
2018-01-15 06:00:00 -3.2 4 Sudoeste 10 Sudoeste 0 -- -- 97
2018-01-15 05:00:00 -2.9 5 Sur 8 Sur 0 -- -- 98
2018-01-15 04:00:00 -2.8 3 Sur 9 Sur 0 -- -- 97
2018-01-15 03:00:00 -2.8 0 Calma 2 Noroeste 0 -- -- 97
2018-01-15 02:00:00 -2.1 0 Calma 8 Sur 0 -- -- 97
2018-01-15 01:00:00 -1.6 6 Sur 9 Sur 0 -- -- 98
2018-01-15 00:00:00 -1.3 5 Sur 9 Sur 0 -- -- 97
2018-01-14 23:00:00 -1.1 4 Sudoeste 7 Sudoeste 0 -- -- 96
2018-01-14 22:00:00 -0.4 3 Sudeste 5 Sudeste 0 -- -- 95
2018-01-14 21:00:00 0.4 0 Calma 8 Norte 0 -- -- 90
2018-01-14 20:00:00 1.3 4 Norte 9 Norte 0 -- -- 91
2018-01-14 19:00:00 2.2 4 Norte 13 Norte 0 -- -- 85
2018-01-14 18:00:00 2.8 8 Norte 18 Norte 0 -- -- 83
2018-01-14 17:00:00 3.4 12 Norte 15 Norte 0 -- -- 79
2018-01-14 16:00:00 3.7 10 Norte 15 Norte 0 -- -- 81
2018-01-14 15:00:00 3.8 9 Norte 18 Norte 0 -- -- 82
2018-01-14 14:00:00 3.7 10 Norte 14 Norte 0 -- -- 80
2018-01-14 13:00:00 3.4 9 Norte 17 Norte 0 -- -- 84
2018-01-14 12:00:00 3 9 Norte 14 Norte 0 -- -- 88
2018-01-14 11:00:00 3 5 Oeste 12 Norte 0 -- -- 89
2018-01-14 10:00:00 1.9 5 Noroeste 13 Norte 0 -- -- 97
2018-01-14 09:00:00 1.5 5 Noroeste 13 Noroeste 0.4 -- -- 97
2018-01-14 08:00:00 1.9 6 Oeste 12 Oeste 0 -- -- 97
2018-01-14 07:00:00 1.9 8 Oeste 15 Oeste 0 -- -- 96
2018-01-14 06:00:00 2 6 Oeste 23 Noroeste 0 -- -- 96
2018-01-14 05:00:00 2.4 11 Oeste 22 Noroeste 0 -- -- 95
2018-01-14 04:00:00 2.6 14 Oeste 27 Oeste 0 -- -- 94
2018-01-14 03:00:00 2.5 18 Oeste 26 Oeste 0 -- -- 94
2018-01-14 02:00:00 2.6 18 Oeste 31 Oeste 0 -- -- 94
2018-01-14 01:00:00 2.8 18 Oeste 26 Oeste 0 -- -- 93
2018-01-14 00:00:00 2.5 12 Oeste 29 Oeste 0 -- -- 94
2018-01-13 23:00:00 2.7 19 Oeste 30 Oeste 0 -- -- 93
2018-01-13 22:00:00 2.7 21 Oeste 31 Oeste 0 -- -- 92
2018-01-13 21:00:00 2.9 22 Oeste 33 Oeste 0 -- -- 94
2018-01-13 20:00:00 2.8 20 Oeste 30 Oeste 0 -- -- 92
2018-01-13 19:00:00 3.2 17 Oeste 33 Oeste 0 -- -- 92
2018-01-13 18:00:00 3.8 24 Oeste 39 Oeste 0 -- -- 90
2018-01-13 17:00:00 3.7 20 Oeste 34 Oeste 0.4 -- -- 92
2018-01-13 16:00:00 3.3 14 Oeste 32 Oeste 0.6 -- -- 94
2018-01-13 15:00:00 2.7 11 Sudoeste 18 Sudoeste 0.8 -- -- 95
2018-01-13 14:00:00 3.1 4 Sudoeste 14 Sur 0.6 -- -- 95
2018-01-13 13:00:00 2.9 8 Sudoeste 17 Sur 0.8 -- -- 91
2018-01-13 12:00:00 2.4 12 Sur 22 Sur 1 -- -- 86
2018-01-13 11:00:00 3.2 10 Sudoeste 22 Sur 0 -- -- 74
2018-01-13 10:00:00 2.9 16 Sur 27 Sur 0 -- -- 76
2018-01-13 09:00:00 1 12 Sur 17 Sur 0 -- -- 86
2018-01-13 08:00:00 0.7 8 Sur 13 Sur 0 -- -- 92
2018-01-13 07:00:00 1.3 7 Sur 15 Oeste 0 -- -- 90
2018-01-13 06:00:00 1.5 8 Oeste 19 Oeste 0 -- -- 90
2018-01-13 05:00:00 -0.4 2 Noroeste 8 Sur 0 -- -- 93
2018-01-13 04:00:00 0 5 Sur 8 Sur 0 -- -- 92
2018-01-13 03:00:00 0.2 4 Oeste 9 Sur 0 -- -- 91
2018-01-13 02:00:00 0.8 5 Sur 9 Sur 0 -- -- 91
2018-01-13 01:00:00 0.8 5 Sur 12 Sudoeste 0 -- -- 91
2018-01-13 00:00:00 1 7 Sudoeste 12 Sudoeste 0 -- -- 92
2018-01-12 23:00:00 1.3 5 Sur 8 Sur 0 -- -- 92
2018-01-12 22:00:00 1.8 4 Sur 8 Sur 0 -- -- 90
2018-01-12 21:00:00 3.2 4 Sur 9 Oeste 0 -- -- 87
2018-01-12 20:00:00 4.2 4 Sudoeste 9 Este 0 -- -- 87
2018-01-12 19:00:00 4.8 2 Este 4 Este 0 -- -- 84
2018-01-12 18:00:00 5.7 2 Noroeste 7 Noroeste 0 -- -- 79
2018-01-12 17:00:00 7.1 3 Oeste 10 Oeste 0 -- -- 69
2018-01-12 16:00:00 7.6 0 Calma 8 Sudeste 0 -- -- 66
2018-01-12 15:00:00 6.7 4 Sur 11 Sudeste 0 -- -- 68
2018-01-12 14:00:00 6.1 5 Sudeste 10 Sudeste 0 -- -- 67
2018-01-12 13:00:00 5.1 8 Sudeste 14 Sudeste 0 -- -- 74
2018-01-12 12:00:00 3.3 4 Sur 8 Sur 0 -- -- 78
2018-01-12 11:00:00 0.9 5 Sudoeste 11 Sur 0 -- -- 86
2018-01-12 10:00:00 -1.4 10 Sur 16 Sur 0 -- -- 92
2018-01-12 09:00:00 -2.6 5 Sur 7 Sur 0 -- -- 97
2018-01-12 08:00:00 -2.5 3 Sudoeste 8 Sur 0 -- -- 96
2018-01-12 07:00:00 -1.7 8 Sur 11 Sur 0 -- -- 96
2018-01-12 06:00:00 -1 5 Sur 8 Sur 0 -- -- 95
2018-01-12 05:00:00 0.2 4 Sur 18 Noroeste 0 -- -- 93
2018-01-12 04:00:00 0.6 6 Oeste 14 Oeste 0 -- -- 94
2018-01-12 03:00:00 0.7 6 Oeste 15 Oeste 0 -- -- 93
2018-01-12 02:00:00 0.6 3 Sudoeste 15 Oeste 0 -- -- 91
2018-01-12 01:00:00 1.3 10 Noroeste 24 Oeste 0 -- -- 90
2018-01-12 00:00:00 1.6 10 Oeste 22 Noroeste 0 -- -- 88
2018-01-11 23:00:00 1.6 11 Oeste 22 Oeste 0 -- -- 88
2018-01-11 22:00:00 1.9 12 Oeste 25 Oeste 0 -- -- 86
2018-01-11 21:00:00 2.4 13 Oeste 26 Noroeste 0 -- -- 84
2018-01-11 20:00:00 3.2 12 Oeste 27 Oeste 0 -- -- 83
2018-01-11 19:00:00 4 12 Oeste 30 Noroeste 0 -- -- 80
2018-01-11 18:00:00 5.2 16 Oeste 31 Noroeste 0 -- -- 76
2018-01-11 17:00:00 5.8 16 Noroeste 30 Noroeste 0 -- -- 69
2018-01-11 16:00:00 6.6 15 Noroeste 28 Oeste 0 -- -- 67
2018-01-11 15:00:00 6.2 13 Noroeste 27 Noroeste 0 -- -- 70
2018-01-11 14:00:00 6.1 13 Noroeste 35 Noroeste 0 -- -- 71
2018-01-11 13:00:00 5.2 17 Noroeste 35 Noroeste 0 -- -- 73
2018-01-11 12:00:00 4.5 14 Noroeste 33 Noroeste 0 -- -- 79
2018-01-11 11:00:00 3.5 18 Noroeste 28 Noroeste 0 -- -- 86
2018-01-11 10:00:00 2.4 15 Noroeste 35 Noroeste 0 -- -- 91
2018-01-11 09:00:00 2.1 21 Noroeste 35 Noroeste 0 -- -- 93
2018-01-11 08:00:00 1.9 19 Oeste 37 Oeste 0 -- -- 95
2018-01-11 07:00:00 1.8 21 Noroeste 41 Noroeste 0 -- -- 96
2018-01-11 06:00:00 1.9 23 Noroeste 37 Oeste 0 -- -- 95
2018-01-11 05:00:00 1.9 19 Noroeste 37 Noroeste 0 -- -- 95
2018-01-11 04:00:00 2.5 19 Oeste 43 Oeste 0 -- -- 93
2018-01-11 03:00:00 2.4 30 Oeste 49 Oeste 0 -- -- 91
2018-01-11 02:00:00 2.2 31 Oeste 49 Oeste 0 -- -- 89
2018-01-11 01:00:00 1.9 31 Oeste 46 Oeste 0 -- -- 89
2018-01-11 00:00:00 1.6 24 Oeste 37 Oeste 0 -- -- 92
2018-01-10 23:00:00 1.8 14 Oeste 29 Oeste 0 -- -- 92
2018-01-10 22:00:00 1.6 13 Oeste 26 Oeste 0 -- -- 93
2018-01-10 21:00:00 2.7 16 Oeste 35 Oeste 0 -- -- 89
2018-01-10 20:00:00 3.3 17 Noroeste 40 Oeste 0 -- -- 91
2018-01-10 19:00:00 4.1 23 Noroeste 37 Noroeste 0 -- -- 87
2018-01-10 18:00:00 4.9 18 Oeste 36 Oeste 0 -- -- 87
2018-01-10 17:00:00 4.2 27 Oeste 45 Oeste 0.4 -- -- 91
2018-01-10 16:00:00 5.4 23 Oeste 47 Oeste 0 -- -- 86
2018-01-10 15:00:00 5.2 21 Sudoeste 36 Sudoeste 0 -- -- 84
2018-01-10 14:00:00 4.1 24 Oeste 39 Oeste 0 -- -- 88
2018-01-10 13:00:00 4.4 14 Sudoeste 22 Oeste 0 -- -- 87
2018-01-10 12:00:00 3.8 7 Sudoeste 15 Sudoeste 0 -- -- 89
2018-01-10 11:00:00 3 12 Sudoeste 18 Sudoeste 0 -- -- 93
2018-01-10 10:00:00 2.6 8 Sudoeste 22 Oeste 0 -- -- 94
2018-01-10 09:00:00 2.6 10 Oeste 28 Oeste 0 -- -- 97
2018-01-10 08:00:00 2.7 15 Oeste 32 Oeste 0 -- -- 96
2018-01-10 07:00:00 2.9 19 Oeste 32 Oeste 0 -- -- 98
2018-01-10 06:00:00 2.8 22 Oeste 35 Oeste 0.2 -- -- 97
2018-01-10 05:00:00 2.9 22 Oeste 30 Oeste 0 -- -- 96
2018-01-10 04:00:00 2.6 8 Oeste 19 Oeste 0 -- -- 95
2018-01-10 03:00:00 2.9 14 Oeste 27 Oeste 0 -- -- 95
2018-01-10 02:00:00 2.8 16 Oeste 30 Oeste 0 -- -- 98
2018-01-10 01:00:00 2.7 18 Oeste 25 Oeste 0 -- -- 100
2018-01-10 00:00:00 2.1 8 Sudoeste 17 Oeste 0 -- -- 99
2018-01-09 23:00:00 2.4 6 Oeste 17 Oeste 0 -- -- 99
2018-01-09 22:00:00 1.5 5 Sur 9 Sur 0 -- -- 100
2018-01-09 21:00:00 1.3 0 Calma 9 Sudeste 0 -- -- 98
2018-01-09 20:00:00 1.4 5 Sudeste 10 Sur 0 -- -- 99
2018-01-09 19:00:00 1.4 8 Sur 11 Sur 0.4 -- -- 99
2018-01-09 18:00:00 1.3 2 Oeste 10 Oeste 0 -- -- 97
2018-01-09 17:00:00 2.6 2 Noroeste 6 Noroeste 0.2 -- -- 91
2018-01-09 16:00:00 2.9 2 Sudoeste 13 Sur 0.2 -- -- 86
2018-01-09 15:00:00 3.2 3 Sur 13 Sur 0 -- -- 81
2018-01-09 14:00:00 2.5 9 Sudoeste 24 Sur 0 -- -- 78
2018-01-09 13:00:00 1.4 10 Sur 17 Sur 0.2 -- -- 84
2018-01-09 12:00:00 -0.4 10 Sur 13 Sur 0 -- -- 82
2018-01-09 11:00:00 -0.8 7 Sur 18 Sur 0 -- -- 79
2018-01-09 10:00:00 -4.9 8 Sudoeste 17 Oeste 0 -- -- 88
2018-01-09 09:00:00 -7 5 Sudoeste 11 Sur 0 -- -- 92
2018-01-09 08:00:00 -8.4 9 Sur 13 Sur 0 -- -- 94
2018-01-09 07:00:00 -9.9 5 Sur 13 Sur 0 -- -- 93
2018-01-09 06:00:00 -10.5 4 Sudoeste 11 Sur 0 -- -- 93
2018-01-09 05:00:00 -11.2 6 Sudoeste 12 Sur 0 -- -- 93
2018-01-09 04:00:00 -12.5 5 Sudoeste 11 Sur 0 -- -- 92
2018-01-09 03:00:00 -11.9 8 Sur 12 Sur 0 -- -- 92
2018-01-09 02:00:00 -11.6 8 Sur 11 Sur 0 -- -- 92
2018-01-09 01:00:00 -11.3 9 Sudoeste 11 Sur 0 -- -- 95
2018-01-09 00:00:00 -11.4 6 Sur 17 Sur 0 -- -- 94
2018-01-08 23:00:00 -10.2 3 Sudoeste 13 Sur 0 -- -- 94
2018-01-08 22:00:00 -11.5 5 Sudoeste 13 Sur 0 -- -- 91
2018-01-08 21:00:00 -9 8 Sur 13 Sudoeste 0 -- -- 96
2018-01-08 20:00:00 -8.3 8 Sudoeste 12 Sur 0 -- -- 96
2018-01-08 19:00:00 -7.2 8 Sur 10 Sudoeste 0 -- -- 94
2018-01-08 18:00:00 -3.9 5 Sudoeste 10 Sudoeste 0 -- -- 91
2018-01-08 17:00:00 -0.7 3 Sudoeste 8 Sudoeste 0 -- -- 86
2018-01-08 16:00:00 0.7 3 Oeste 8 Norte 0 -- -- 100
2018-01-08 15:00:00 -0.2 6 Norte 12 Norte 0 -- -- 100
2018-01-08 14:00:00 -1 9 Norte 13 Noroeste 0 -- -- 100
2018-01-08 13:00:00 -1.1 4 Oeste 9 Sudoeste 0 -- -- 100
2018-01-08 12:00:00 -4.5 5 Sudoeste 10 Sudoeste 0 -- -- 100
2018-01-08 11:00:00 -7.3 3 Sudoeste 10 Sudoeste 0 -- -- 98
2018-01-08 10:00:00 -9.8 6 Sur 9 Sur 0 -- -- 96
2018-01-08 09:00:00 -12 3 Sudoeste 7 Sur 0 -- -- 93
2018-01-08 08:00:00 -12 5 Sur 8 Sur 0 -- -- 92
2018-01-08 07:00:00 -11.5 3 Este 9 Nordeste 0 -- -- 93
2018-01-08 06:00:00 -10.8 3 Sur 4 Sudeste 0 -- -- 94
2018-01-08 05:00:00 -10.8 0 Calma 6 Sur 0 -- -- 93
2018-01-08 04:00:00 -9.6 5 Sur 8 Sudoeste 0 -- -- 95
2018-01-08 03:00:00 -9.3 3 Sudoeste 8 Oeste 0 -- -- 94
2018-01-08 02:00:00 -7 2 Sudoeste 5 Sudoeste 0 -- -- 96
2018-01-08 01:00:00 -5.4 3 Nordeste 9 Nordeste 0 -- -- 97
2018-01-08 00:00:00 -3.7 0 Calma 8 Nordeste 0 -- -- 99
2018-01-07 23:00:00 -3.7 3 Nordeste 8 Sur 0 -- -- 99
2018-01-07 22:00:00 -1.5 5 Sudeste 8 Sudeste 0 -- -- 100
2018-01-07 21:00:00 -0.3 4 Sudeste 6 Sudeste 0 -- -- 100
2018-01-07 20:00:00 0 5 Este 10 Este 0 -- -- 100
2018-01-07 19:00:00 0.1 4 Este 13 Este 0.2 -- -- 100
2018-01-07 18:00:00 -0.1 7 Sudeste 11 Sudeste 0 -- -- 100
2018-01-07 17:00:00 0.1 5 Este 9 Nordeste 0.4 -- -- 100
2018-01-07 16:00:00 0.1 6 Norte 13 Norte 1 -- -- 100
2018-01-07 15:00:00 0.2 9 Norte 17 Norte 0.4 -- -- 100
2018-01-07 14:00:00 0.4 10 Norte 15 Noroeste 0.8 -- -- 100
2018-01-07 13:00:00 0.3 5 Noroeste 10 Norte 2 -- -- 100
2018-01-07 12:00:00 -0.1 7 Noroeste 12 Norte 3.4 -- -- 100
2018-01-07 11:00:00 -0.2 8 Norte 15 Noroeste 1.4 -- -- 100
2018-01-07 10:00:00 -0.2 10 Norte 14 Norte 1 -- -- 100
2018-01-07 09:00:00 -0.2 10 Noroeste 17 Noroeste 1 -- -- 100
2018-01-07 08:00:00 -0.2 9 Noroeste 22 Noroeste 0.6 -- -- 100
2018-01-07 07:00:00 -0.2 15 Noroeste 24 Noroeste 0.6 -- -- 100
2018-01-07 06:00:00 -0.2 18 Noroeste 31 Noroeste 0.4 -- -- 100
2018-01-07 05:00:00 -0.2 18 Noroeste 30 Noroeste 0.2 -- -- 100
2018-01-07 04:00:00 -0.2 19 Noroeste 32 Noroeste 0.6 -- -- 100
2018-01-07 03:00:00 -0.2 19 Noroeste 33 Norte 0.6 -- -- 100
2018-01-07 02:00:00 -0.2 19 Noroeste 32 Norte 0.6 -- -- 100
2018-01-07 01:00:00 -0.2 19 Noroeste 32 Norte 0.4 -- -- 100
2018-01-07 00:00:00 0 21 Norte 35 Norte 0.2 -- -- 100
2018-01-06 23:00:00 0.1 18 Norte 28 Norte 0.2 -- -- 100
2018-01-06 22:00:00 0 18 Norte 30 Norte 0.2 -- -- 100
2018-01-06 21:00:00 0.3 21 Norte 33 Norte 0.4 -- -- 100
2018-01-06 20:00:00 0.3 21 Norte 33 Norte 0.2 -- -- 100
2018-01-06 19:00:00 0.4 21 Norte 33 Norte 0.2 -- -- 99
2018-01-06 18:00:00 0.7 20 Norte 33 Norte 0.4 -- -- 99
2018-01-06 17:00:00 0.6 17 Norte 30 Norte 1 -- -- 99
2018-01-06 16:00:00 0.7 17 Norte 31 Norte 0.8 -- -- 99
2018-01-06 15:00:00 0.8 15 Norte 30 Norte 0.6 -- -- 99
2018-01-06 14:00:00 0.6 14 Norte 25 Norte 0.8 -- -- 98
2018-01-06 13:00:00 1.4 13 Norte 26 Norte 0.6 -- -- 98
2018-01-06 12:00:00 1.7 13 Nordeste 24 Nordeste 0.8 -- -- 98
2018-01-06 11:00:00 1.9 14 Norte 22 Noroeste 0.2 -- -- 98
2018-01-06 10:00:00 2.1 10 Norte 15 Norte 0 -- -- 99
2018-01-06 09:00:00 1.6 6 Norte 9 Norte 0 -- -- 98
2018-01-06 08:00:00 1.7 4 Norte 5 Norte 0 -- -- 98
2018-01-06 07:00:00 1.5 2 Sudoeste 6 Sudeste 0 -- -- 98
2018-01-06 06:00:00 1.4 2 Sudeste 4 Sur 0 -- -- 98
2018-01-06 05:00:00 1.5 2 Este 6 Sudeste 0.4 -- -- 97
2018-01-06 04:00:00 2 2 Sudoeste 7 Sur 1 -- -- 96
2018-01-06 03:00:00 2.4 4 Sur 13 Sudoeste 1 -- -- 96
2018-01-06 02:00:00 2.7 10 Sur 15 Sur 0.4 -- -- 95
2018-01-06 01:00:00 3.4 10 Sur 14 Sur 0.6 -- -- 96
2018-01-06 00:00:00 3.7 6 Sur 15 Sur 0.8 -- -- 96
2018-01-05 23:00:00 4 5 Sudoeste 9 Sudoeste 0 -- -- 94
2018-01-05 22:00:00 4 3 Sudeste 19 Noroeste 2 -- -- 93
2018-01-05 21:00:00 4.7 9 Noroeste 19 Noroeste 2.4 -- -- 94
2018-01-05 20:00:00 5.9 12 Noroeste 32 Noroeste 2.2 -- -- 96
2018-01-05 19:00:00 6.8 6 Noroeste 15 Oeste 1.6 -- -- 96
2018-01-05 18:00:00 7.3 10 Oeste 20 Oeste 1.4 -- -- 94
2018-01-05 17:00:00 7.7 11 Oeste 21 Oeste 0.8 -- -- 92
2018-01-05 16:00:00 8.5 16 Oeste 28 Oeste 0 -- -- 87
2018-01-05 15:00:00 8.7 7 Sudoeste 22 Oeste 0.2 -- -- 91
2018-01-05 14:00:00 8.5 15 Sudoeste 25 Oeste 0.2 -- -- 91
2018-01-05 13:00:00 7.8 13 Noroeste 36 Noroeste 0 -- -- 94
2018-01-05 12:00:00 8.7 21 Oeste 49 Oeste 0 -- -- 90
2018-01-05 11:00:00 10.3 25 Sudoeste 46 Sudoeste 0 -- -- 71
2018-01-05 10:00:00 9.1 15 Sudoeste 29 Sudoeste 0 -- -- 74
2018-01-05 09:00:00 7.9 16 Sudoeste 37 Sudoeste 0 -- -- 75
2018-01-05 08:00:00 8.2 20 Sudoeste 42 Sudoeste 0 -- -- 79
2018-01-05 07:00:00 8.2 21 Sudoeste 39 Oeste 0 -- -- 81
2018-01-05 06:00:00 7.8 14 Oeste 28 Oeste 0 -- -- 88
2018-01-05 05:00:00 8.2 16 Oeste 31 Sudoeste 0 -- -- 85
2018-01-05 04:00:00 8.4 17 Oeste 43 Oeste 0 -- -- 80
2018-01-05 03:00:00 8.8 23 Oeste 41 Oeste 0 -- -- 77
2018-01-05 02:00:00 8.9 19 Oeste 39 Oeste 0 -- -- 80
2018-01-05 01:00:00 9.3 15 Oeste 26 Oeste 0 -- -- 87
2018-01-05 00:00:00 9.5 14 Oeste 26 Oeste 0 -- -- 87
2018-01-04 23:00:00 9.7 15 Oeste 24 Oeste 0 -- -- 85
2018-01-04 22:00:00 9.9 12 Oeste 25 Oeste 0 -- -- 82
2018-01-04 21:00:00 9.7 5 Sudoeste 14 Oeste 0 -- -- 81
2018-01-04 20:00:00 10.4 8 Sudoeste 22 Oeste 0 -- -- 76
2018-01-04 19:00:00 10.7 11 Oeste 27 Sudoeste 0 -- -- 73
2018-01-04 18:00:00 11.1 13 Oeste 28 Oeste 0 -- -- 72
2018-01-04 17:00:00 11.5 17 Oeste 35 Oeste 0 -- -- 70
2018-01-04 16:00:00 11.5 18 Noroeste 44 Oeste 0 -- -- 69
2018-01-04 15:00:00 11.4 18 Noroeste 39 Oeste 0 -- -- 78
2018-01-04 14:00:00 11.3 19 Oeste 39 Noroeste 0 -- -- 77
2018-01-04 13:00:00 11 17 Oeste 35 Oeste 0 -- -- 77
2018-01-04 12:00:00 10.5 15 Oeste 38 Oeste 0 -- -- 87
2018-01-04 11:00:00 10.7 13 Oeste 27 Oeste 0 -- -- 80
2018-01-04 10:00:00 10.2 14 Oeste 26 Oeste 0 -- -- 87
2018-01-04 09:00:00 9.9 13 Oeste 26 Oeste 0 -- -- 90
2018-01-04 08:00:00 10.3 16 Oeste 28 Oeste 0 -- -- 86
2018-01-04 07:00:00 10.1 17 Oeste 28 Sudoeste 0 -- -- 89
2018-01-04 06:00:00 10.1 13 Oeste 23 Oeste 0 -- -- 92
2018-01-04 05:00:00 10.1 12 Oeste 20 Sudoeste 0 -- -- 95
2018-01-04 04:00:00 10.3 11 Oeste 20 Oeste 0 -- -- 95
2018-01-04 03:00:00 10.3 9 Oeste 19 Oeste 0 -- -- 95
2018-01-04 02:00:00 10.6 14 Oeste 27 Noroeste 0 -- -- 93
2018-01-04 01:00:00 10.9 15 Oeste 29 Oeste 0 -- -- 88
2018-01-04 00:00:00 10.7 16 Oeste 34 Oeste 0 -- -- 90
2018-01-03 23:00:00 11.1 21 Oeste 39 Oeste 0 -- -- 88
2018-01-03 22:00:00 11.3 26 Oeste 38 Oeste 0 -- -- 88
2018-01-03 21:00:00 10.7 17 Oeste 32 Oeste 0 -- -- 90
2018-01-03 20:00:00 11.8 13 Oeste 24 Oeste 0 -- -- 88
2018-01-03 19:00:00 12 10 Oeste 27 Noroeste 0 -- -- 86
2018-01-03 18:00:00 12.3 12 Noroeste 33 Oeste 0 -- -- 84
2018-01-03 17:00:00 12.8 15 Oeste 33 Oeste 0 -- -- 82
2018-01-03 16:00:00 13.2 18 Noroeste 33 Noroeste 0 -- -- 81
2018-01-03 15:00:00 13.6 21 Noroeste 40 Oeste 0 -- -- 78
2018-01-03 14:00:00 13.5 20 Oeste 41 Oeste 0 -- -- 82
2018-01-03 13:00:00 13.1 29 Oeste 46 Oeste 0 -- -- 82
2018-01-03 12:00:00 11.7 20 Oeste 38 Oeste 0 -- -- 91
2018-01-03 11:00:00 11.4 17 Oeste 33 Oeste 0.2 -- -- 90
2018-01-03 10:00:00 10.8 15 Oeste 28 Oeste 0 -- -- 92
2018-01-03 09:00:00 10.5 20 Oeste 31 Oeste 0 -- -- 93
2018-01-03 08:00:00 10.5 16 Oeste 31 Oeste 0 -- -- 93
2018-01-03 07:00:00 10.4 14 Oeste 33 Oeste 0 -- -- 94
2018-01-03 06:00:00 10.4 20 Oeste 32 Oeste 0 -- -- 94
2018-01-03 05:00:00 10.4 19 Oeste 33 Oeste 0 -- -- 93
2018-01-03 04:00:00 10.5 16 Oeste 32 Oeste 0 -- -- 93
2018-01-03 03:00:00 10.6 19 Oeste 32 Oeste 0 -- -- 93
2018-01-03 02:00:00 10.4 19 Oeste 33 Oeste 0 -- -- 95
2018-01-03 01:00:00 10.5 19 Oeste 32 Oeste 0 -- -- 94
2018-01-03 00:00:00 10.5 17 Oeste 33 Oeste 0 -- -- 93
2018-01-02 23:00:00 10.5 19 Oeste 34 Oeste 0 -- -- 93
2018-01-02 22:00:00 10.2 18 Oeste 30 Oeste 0 -- -- 96
2018-01-02 21:00:00 10.2 16 Oeste 32 Oeste 0 -- -- 95
2018-01-02 20:00:00 10 14 Oeste 38 Oeste 0 -- -- 95
2018-01-02 19:00:00 10.1 24 Oeste 35 Oeste 0 -- -- 94
2018-01-02 18:00:00 9.8 17 Oeste 25 Oeste 0 -- -- 96
2018-01-02 17:00:00 9.6 14 Oeste 32 Oeste 0 -- -- 95
2018-01-02 16:00:00 9.7 14 Oeste 32 Noroeste 0 -- -- 93
2018-01-02 15:00:00 10.1 19 Noroeste 36 Oeste 0 -- -- 87
2018-01-02 14:00:00 10 18 Oeste 39 Oeste 0 -- -- 87
2018-01-02 13:00:00 9.3 20 Oeste 36 Oeste 0 -- -- 87
2018-01-02 12:00:00 8.7 22 Oeste 38 Oeste 0 -- -- 87
2018-01-02 11:00:00 8.2 18 Oeste 33 Oeste 0 -- -- 83
2018-01-02 10:00:00 7.3 16 Oeste 31 Oeste 0 -- -- 83
2018-01-02 09:00:00 6.1 19 Oeste 30 Oeste 0 -- -- 87
2018-01-02 08:00:00 6.1 13 Oeste 30 Oeste 0 -- -- 88
2018-01-02 07:00:00 6.3 18 Oeste 32 Oeste 0 -- -- 88
2018-01-02 06:00:00 6.7 16 Oeste 34 Oeste 0 -- -- 86
2018-01-02 05:00:00 6.9 19 Oeste 38 Oeste 0 -- -- 85
2018-01-02 04:00:00 6.7 23 Oeste 37 Sudoeste 0 -- -- 85
2018-01-02 03:00:00 6.7 21 Oeste 35 Oeste 0 -- -- 85
2018-01-02 02:00:00 6.7 17 Oeste 40 Oeste 0 -- -- 86
2018-01-02 01:00:00 6.6 18 Oeste 37 Oeste 0 -- -- 87
2018-01-02 00:00:00 6.8 26 Oeste 46 Oeste 0 -- -- 88
2018-01-01 23:00:00 7.4 29 Oeste 50 Oeste 0 -- -- 87
2018-01-01 22:00:00 7.2 35 Oeste 48 Oeste 0 -- -- 89
2018-01-01 21:00:00 7.3 28 Oeste 39 Oeste 0 -- -- 88
2018-01-01 20:00:00 7.4 24 Oeste 41 Oeste 0 -- -- 89
2018-01-01 19:00:00 7.6 27 Oeste 46 Oeste 0 -- -- 89
2018-01-01 18:00:00 7.3 29 Oeste 47 Oeste 0 -- -- 90
2018-01-01 17:00:00 7.4 26 Oeste 48 Oeste 0 -- -- 88
2018-01-01 16:00:00 7.5 30 Oeste 53 Oeste 0 -- -- 86
2018-01-01 15:00:00 7.9 30 Oeste 49 Oeste 0 -- -- 79
2018-01-01 14:00:00 8 25 Oeste 42 Oeste 0 -- -- 74
2018-01-01 13:00:00 7.1 25 Oeste 50 Oeste 0 -- -- 71
2018-01-01 12:00:00 6.6 18 Oeste 37 Oeste 0 -- -- 75
2018-01-01 11:00:00 5.7 20 Oeste 34 Oeste 0 -- -- 77
2018-01-01 10:00:00 1.9 4 Sur 10 Sur 0 -- -- 84
2018-01-01 09:00:00 0.7 8 Sur 14 Sur 0 -- -- 87
2018-01-01 08:00:00 1.6 10 Sur 15 Sur 0 -- -- 83
2018-01-01 07:00:00 1.9 9 Sur 15 Sur 0 -- -- 83
2018-01-01 06:00:00 1.3 7 Sudoeste 13 Sudoeste 0 -- -- 87
2018-01-01 05:00:00 2 10 Sudoeste 24 Sudoeste 0 -- -- 87
2018-01-01 04:00:00 2.6 15 Sudoeste 30 Oeste 0 -- -- 88
2018-01-01 03:00:00 2.2 9 Sudoeste 26 Oeste 0 -- -- 90
2018-01-01 02:00:00 3.2 17 Oeste 31 Oeste 0 -- -- 88
2018-01-01 01:00:00 3.2 19 Oeste 36 Oeste 0 -- -- 91
2018-01-01 00:00:00 3.1 13 Oeste 26 Oeste 0 -- -- 93
2017-12-31 23:00:00 3.5 13 Oeste 24 Oeste 0 -- -- 90
2017-12-31 22:00:00 3.5 14 Oeste 23 Oeste 0 -- -- 88
2017-12-31 21:00:00 3.3 4 Sur 26 Oeste 0 -- -- 88
2017-12-31 20:00:00 4.9 16 Noroeste 36 Noroeste 0 -- -- 77
2017-12-31 19:00:00 6.4 18 Noroeste 44 Noroeste 0.2 -- -- 86
2017-12-31 18:00:00 6.2 17 Noroeste 37 Oeste 0.6 -- -- 87
2017-12-31 17:00:00 7.1 15 Noroeste 82 Noroeste 0.4 -- -- 87
2017-12-31 16:00:00 10.1 36 Oeste 58 Oeste 0 -- -- 79
2017-12-31 15:00:00 10.4 28 Oeste 55 Oeste 0 -- -- 76
2017-12-31 14:00:00 10.5 30 Oeste 57 Sudoeste 0 -- -- 72
2017-12-31 13:00:00 10 27 Oeste 55 Sudoeste 0 -- -- 71
2017-12-31 12:00:00 9.9 29 Oeste 51 Oeste 0 -- -- 71
2017-12-31 11:00:00 7.6 13 Sudoeste 23 Sudoeste 0 -- -- 84
2017-12-31 10:00:00 6.9 8 Sudoeste 15 Sudoeste 0 -- -- 89
2017-12-31 09:00:00 6.3 10 Sur 18 Sur 0 -- -- 91
2017-12-31 08:00:00 7.5 11 Oeste 28 Oeste 0 -- -- 86
2017-12-31 07:00:00 6 7 Sudoeste 17 Sudoeste 0 -- -- 93
2017-12-31 06:00:00 4.9 9 Sur 14 Sudoeste 0 -- -- 97
2017-12-31 05:00:00 3.9 8 Sudoeste 14 Sudoeste 0 -- -- 97
2017-12-31 04:00:00 4.3 10 Sur 14 Sur 0 -- -- 95
2017-12-31 03:00:00 5.5 7 Sudoeste 9 Sur 0 -- -- 95
2017-12-31 02:00:00 5.9 5 Sudoeste 12 Sur 0 -- -- 97
2017-12-31 01:00:00 4.8 9 Sur 15 Sur 0 -- -- 97